sensor_id;sensor_type;location;lat;lon;timestamp;P1;durP1;ratioP1;P2;durP2;ratioP2
22066;SDS011;72821;49.814;19.034;2023-12-04T00:03:28;37.97;;;10.63;;
22066;SDS011;72821;49.814;19.034;2023-12-04T00:08:30;28.33;;;9.45;;
22066;SDS011;72821;49.814;19.034;2023-12-04T00:13:32;35.00;;;10.60;;
22066;SDS011;72821;49.814;19.034;2023-12-04T00:18:35;39.95;;;10.75;;
22066;SDS011;72821;49.814;19.034;2023-12-04T00:23:37;40.58;;;11.27;;
22066;SDS011;72821;49.814;19.034;2023-12-04T00:28:39;37.45;;;10.77;;
22066;SDS011;72821;49.814;19.034;2023-12-04T00:33:41;40.90;;;11.40;;
22066;SDS011;72821;49.814;19.034;2023-12-04T00:38:44;35.20;;;9.48;;
22066;SDS011;72821;49.814;19.034;2023-12-04T00:43:46;34.00;;;9.95;;
22066;SDS011;72821;49.814;19.034;2023-12-04T00:48:48;48.30;;;12.68;;
22066;SDS011;72821;49.814;19.034;2023-12-04T00:53:51;51.38;;;13.13;;
22066;SDS011;72821;49.814;19.034;2023-12-04T00:58:53;61.42;;;14.20;;
22066;SDS011;72821;49.814;19.034;2023-12-04T01:03:55;51.60;;;15.23;;
22066;SDS011;72821;49.814;19.034;2023-12-04T01:08:57;49.65;;;12.52;;
22066;SDS011;72821;49.814;19.034;2023-12-04T01:13:59;23.27;;;8.75;;
22066;SDS011;72821;49.814;19.034;2023-12-04T01:19:01;32.42;;;10.57;;
22066;SDS011;72821;49.814;19.034;2023-12-04T01:24:04;23.50;;;10.93;;
22066;SDS011;72821;49.814;19.034;2023-12-04T01:29:06;43.42;;;13.73;;
22066;SDS011;72821;49.814;19.034;2023-12-04T01:34:08;24.55;;;10.32;;
22066;SDS011;72821;49.814;19.034;2023-12-04T01:39:11;26.77;;;10.48;;
22066;SDS011;72821;49.814;19.034;2023-12-04T01:44:13;22.23;;;9.35;;
22066;SDS011;72821;49.814;19.034;2023-12-04T01:49:15;50.42;;;11.95;;
22066;SDS011;72821;49.814;19.034;2023-12-04T01:54:18;21.38;;;9.50;;
22066;SDS011;72821;49.814;19.034;2023-12-04T01:59:21;25.48;;;9.68;;
22066;SDS011;72821;49.814;19.034;2023-12-04T02:04:23;32.65;;;10.30;;
22066;SDS011;72821;49.814;19.034;2023-12-04T02:09:27;24.88;;;8.30;;
22066;SDS011;72821;49.814;19.034;2023-12-04T02:14:31;23.10;;;8.55;;
22066;SDS011;72821;49.814;19.034;2023-12-04T02:19:33;28.13;;;9.00;;
22066;SDS011;72821;49.814;19.034;2023-12-04T02:24:35;31.45;;;10.48;;
22066;SDS011;72821;49.814;19.034;2023-12-04T02:29:39;24.65;;;8.65;;
22066;SDS011;72821;49.814;19.034;2023-12-04T02:34:45;30.88;;;10.30;;
22066;SDS011;72821;49.814;19.034;2023-12-04T02:39:50;21.88;;;8.70;;
22066;SDS011;72821;49.814;19.034;2023-12-04T02:44:56;24.40;;;8.55;;
22066;SDS011;72821;49.814;19.034;2023-12-04T02:49:58;28.42;;;9.82;;
22066;SDS011;72821;49.814;19.034;2023-12-04T02:55:01;26.60;;;10.60;;
22066;SDS011;72821;49.814;19.034;2023-12-04T03:00:03;44.70;;;12.10;;
22066;SDS011;72821;49.814;19.034;2023-12-04T03:05:06;45.88;;;12.13;;
22066;SDS011;72821;49.814;19.034;2023-12-04T03:10:08;38.80;;;11.52;;
22066;SDS011;72821;49.814;19.034;2023-12-04T03:15:10;44.47;;;12.98;;
22066;SDS011;72821;49.814;19.034;2023-12-04T03:20:14;41.22;;;12.27;;
22066;SDS011;72821;49.814;19.034;2023-12-04T03:25:16;34.33;;;10.75;;
22066;SDS011;72821;49.814;19.034;2023-12-04T03:30:19;38.65;;;12.00;;
22066;SDS011;72821;49.814;19.034;2023-12-04T03:35:22;20.98;;;9.02;;
22066;SDS011;72821;49.814;19.034;2023-12-04T03:40:24;27.95;;;9.93;;
22066;SDS011;72821;49.814;19.034;2023-12-04T03:45:26;23.80;;;8.85;;
22066;SDS011;72821;49.814;19.034;2023-12-04T03:50:28;19.35;;;8.48;;
22066;SDS011;72821;49.814;19.034;2023-12-04T03:55:30;55.08;;;12.75;;
22066;SDS011;72821;49.814;19.034;2023-12-04T04:00:32;19.85;;;7.78;;
22066;SDS011;72821;49.814;19.034;2023-12-04T04:05:35;39.75;;;10.50;;
22066;SDS011;72821;49.814;19.034;2023-12-04T04:10:37;21.40;;;8.88;;
22066;SDS011;72821;49.814;19.034;2023-12-04T04:15:39;37.15;;;11.68;;
22066;SDS011;72821;49.814;19.034;2023-12-04T04:20:42;21.67;;;9.57;;
22066;SDS011;72821;49.814;19.034;2023-12-04T04:25:44;22.45;;;9.65;;
22066;SDS011;72821;49.814;19.034;2023-12-04T04:30:46;25.77;;;10.32;;
22066;SDS011;72821;49.814;19.034;2023-12-04T04:35:49;30.67;;;10.30;;
22066;SDS011;72821;49.814;19.034;2023-12-04T04:40:51;41.67;;;11.10;;
22066;SDS011;72821;49.814;19.034;2023-12-04T04:45:54;41.08;;;11.20;;
22066;SDS011;72821;49.814;19.034;2023-12-04T04:50:56;21.30;;;9.43;;
22066;SDS011;72821;49.814;19.034;2023-12-04T04:55:58;24.73;;;9.63;;
22066;SDS011;72821;49.814;19.034;2023-12-04T05:01:01;28.88;;;9.80;;
22066;SDS011;72821;49.814;19.034;2023-12-04T05:06:03;32.88;;;10.93;;
22066;SDS011;72821;49.814;19.034;2023-12-04T05:11:06;29.88;;;10.93;;
22066;SDS011;72821;49.814;19.034;2023-12-04T05:16:08;28.85;;;10.30;;
22066;SDS011;72821;49.814;19.034;2023-12-04T05:21:11;28.88;;;11.73;;
22066;SDS011;72821;49.814;19.034;2023-12-04T05:26:13;37.88;;;11.90;;
22066;SDS011;72821;49.814;19.034;2023-12-04T05:31:15;41.92;;;12.60;;
22066;SDS011;72821;49.814;19.034;2023-12-04T05:36:17;30.55;;;10.80;;
22066;SDS011;72821;49.814;19.034;2023-12-04T05:41:20;40.72;;;13.35;;
22066;SDS011;72821;49.814;19.034;2023-12-04T05:46:22;37.25;;;13.95;;
22066;SDS011;72821;49.814;19.034;2023-12-04T05:51:24;41.55;;;13.45;;
22066;SDS011;72821;49.814;19.034;2023-12-04T05:56:26;43.95;;;14.85;;
22066;SDS011;72821;49.814;19.034;2023-12-04T06:01:28;38.80;;;12.57;;
22066;SDS011;72821;49.814;19.034;2023-12-04T06:06:30;26.98;;;11.77;;
22066;SDS011;72821;49.814;19.034;2023-12-04T06:11:32;28.85;;;12.52;;
22066;SDS011;72821;49.814;19.034;2023-12-04T06:16:35;36.00;;;12.10;;
22066;SDS011;72821;49.814;19.034;2023-12-04T06:21:37;39.13;;;13.13;;
22066;SDS011;72821;49.814;19.034;2023-12-04T06:26:40;33.85;;;15.05;;
22066;SDS011;72821;49.814;19.034;2023-12-04T06:36:48;62.83;;;18.65;;
22066;SDS011;72821;49.814;19.034;2023-12-04T06:41:51;48.25;;;17.75;;
22066;SDS011;72821;49.814;19.034;2023-12-04T06:46:53;55.95;;;21.95;;
22066;SDS011;72821;49.814;19.034;2023-12-04T06:51:57;78.65;;;24.27;;
22066;SDS011;72821;49.814;19.034;2023-12-04T06:57:00;58.50;;;19.08;;
22066;SDS011;72821;49.814;19.034;2023-12-04T07:02:04;52.78;;;19.20;;
22066;SDS011;72821;49.814;19.034;2023-12-04T07:07:07;45.63;;;15.18;;
22066;SDS011;72821;49.814;19.034;2023-12-04T07:12:09;52.17;;;16.77;;
22066;SDS011;72821;49.814;19.034;2023-12-04T07:17:11;56.97;;;16.80;;
22066;SDS011;72821;49.814;19.034;2023-12-04T07:22:14;110.32;;;32.28;;
22066;SDS011;72821;49.814;19.034;2023-12-04T07:27:16;83.60;;;22.10;;
22066;SDS011;72821;49.814;19.034;2023-12-04T07:32:18;53.20;;;17.13;;
22066;SDS011;72821;49.814;19.034;2023-12-04T07:37:21;51.50;;;15.82;;
22066;SDS011;72821;49.814;19.034;2023-12-04T07:42:24;141.07;;;43.85;;
22066;SDS011;72821;49.814;19.034;2023-12-04T07:47:27;60.40;;;18.92;;
22066;SDS011;72821;49.814;19.034;2023-12-04T07:52:29;37.38;;;14.07;;
22066;SDS011;72821;49.814;19.034;2023-12-04T07:57:32;48.88;;;16.77;;
22066;SDS011;72821;49.814;19.034;2023-12-04T08:02:34;46.20;;;17.77;;
22066;SDS011;72821;49.814;19.034;2023-12-04T08:07:38;48.05;;;18.13;;
22066;SDS011;72821;49.814;19.034;2023-12-04T08:12:40;61.05;;;17.50;;
22066;SDS011;72821;49.814;19.034;2023-12-04T08:17:46;48.37;;;15.83;;
22066;SDS011;72821;49.814;19.034;2023-12-04T08:22:48;41.47;;;13.50;;
22066;SDS011;72821;49.814;19.034;2023-12-04T08:27:50;37.25;;;13.80;;
22066;SDS011;72821;49.814;19.034;2023-12-04T08:32:53;41.67;;;15.48;;
22066;SDS011;72821;49.814;19.034;2023-12-04T08:37:56;56.88;;;16.05;;
22066;SDS011;72821;49.814;19.034;2023-12-04T08:42:59;62.33;;;17.02;;
22066;SDS011;72821;49.814;19.034;2023-12-04T08:48:01;59.15;;;17.45;;
22066;SDS011;72821;49.814;19.034;2023-12-04T08:53:03;55.95;;;17.58;;
22066;SDS011;72821;49.814;19.034;2023-12-04T08:58:06;58.40;;;16.60;;
22066;SDS011;72821;49.814;19.034;2023-12-04T09:03:09;62.10;;;18.40;;
22066;SDS011;72821;49.814;19.034;2023-12-04T09:08:26;47.42;;;17.02;;
22066;SDS011;72821;49.814;19.034;2023-12-04T09:13:39;44.92;;;16.70;;
22066;SDS011;72821;49.814;19.034;2023-12-04T09:18:41;45.85;;;18.13;;
22066;SDS011;72821;49.814;19.034;2023-12-04T09:23:44;40.63;;;16.77;;
22066;SDS011;72821;49.814;19.034;2023-12-04T09:28:51;58.00;;;18.83;;
22066;SDS011;72821;49.814;19.034;2023-12-04T09:33:53;66.43;;;19.40;;
22066;SDS011;72821;49.814;19.034;2023-12-04T09:38:56;37.60;;;14.75;;
22066;SDS011;72821;49.814;19.034;2023-12-04T09:43:58;53.72;;;17.63;;
22066;SDS011;72821;49.814;19.034;2023-12-04T09:49:00;44.15;;;16.85;;
22066;SDS011;72821;49.814;19.034;2023-12-04T09:54:04;47.03;;;17.52;;
22066;SDS011;72821;49.814;19.034;2023-12-04T09:59:08;52.03;;;17.58;;
22066;SDS011;72821;49.814;19.034;2023-12-04T10:04:14;36.53;;;15.02;;
22066;SDS011;72821;49.814;19.034;2023-12-04T10:09:17;33.28;;;14.38;;
22066;SDS011;72821;49.814;19.034;2023-12-04T10:14:20;38.85;;;14.45;;
22066;SDS011;72821;49.814;19.034;2023-12-04T10:19:27;35.33;;;14.43;;
22066;SDS011;72821;49.814;19.034;2023-12-04T10:24:34;36.00;;;13.73;;
22066;SDS011;72821;49.814;19.034;2023-12-04T10:29:45;44.17;;;14.55;;
22066;SDS011;72821;49.814;19.034;2023-12-04T10:34:54;34.38;;;13.35;;
22066;SDS011;72821;49.814;19.034;2023-12-04T10:39:57;35.38;;;13.85;;
22066;SDS011;72821;49.814;19.034;2023-12-04T10:44:59;36.53;;;14.20;;
22066;SDS011;72821;49.814;19.034;2023-12-04T10:50:02;34.03;;;13.48;;
22066;SDS011;72821;49.814;19.034;2023-12-04T10:55:06;27.40;;;11.27;;
22066;SDS011;72821;49.814;19.034;2023-12-04T11:00:10;32.65;;;11.05;;
22066;SDS011;72821;49.814;19.034;2023-12-04T11:05:17;34.08;;;12.55;;
22066;SDS011;72821;49.814;19.034;2023-12-04T11:10:23;32.55;;;14.10;;
22066;SDS011;72821;49.814;19.034;2023-12-04T11:15:28;30.45;;;13.85;;
22066;SDS011;72821;49.814;19.034;2023-12-04T11:20:35;40.45;;;14.48;;
22066;SDS011;72821;49.814;19.034;2023-12-04T11:25:43;36.67;;;14.35;;
22066;SDS011;72821;49.814;19.034;2023-12-04T11:30:46;31.67;;;12.80;;
22066;SDS011;72821;49.814;19.034;2023-12-04T11:35:51;41.88;;;16.63;;
22066;SDS011;72821;49.814;19.034;2023-12-04T11:40:53;42.65;;;18.05;;
22066;SDS011;72821;49.814;19.034;2023-12-04T11:46:07;41.70;;;18.20;;
22066;SDS011;72821;49.814;19.034;2023-12-04T11:51:10;33.60;;;14.07;;
22066;SDS011;72821;49.814;19.034;2023-12-04T11:56:36;35.95;;;15.13;;
22066;SDS011;72821;49.814;19.034;2023-12-04T12:01:39;30.23;;;13.20;;
22066;SDS011;72821;49.814;19.034;2023-12-04T12:06:42;41.55;;;18.17;;
22066;SDS011;72821;49.814;19.034;2023-12-04T12:11:45;28.25;;;13.20;;
22066;SDS011;72821;49.814;19.034;2023-12-04T12:16:48;25.45;;;10.93;;
22066;SDS011;72821;49.814;19.034;2023-12-04T12:21:50;36.90;;;17.90;;
22066;SDS011;72821;49.814;19.034;2023-12-04T12:26:54;45.30;;;21.73;;
22066;SDS011;72821;49.814;19.034;2023-12-04T12:31:59;51.50;;;23.52;;
22066;SDS011;72821;49.814;19.034;2023-12-04T12:37:02;48.47;;;21.90;;
22066;SDS011;72821;49.814;19.034;2023-12-04T12:42:07;42.03;;;19.92;;
22066;SDS011;72821;49.814;19.034;2023-12-04T12:47:09;33.55;;;15.45;;
22066;SDS011;72821;49.814;19.034;2023-12-04T12:52:11;28.58;;;14.43;;
22066;SDS011;72821;49.814;19.034;2023-12-04T12:57:14;26.33;;;11.13;;
22066;SDS011;72821;49.814;19.034;2023-12-04T13:02:16;23.75;;;8.25;;
22066;SDS011;72821;49.814;19.034;2023-12-04T13:07:18;33.20;;;9.43;;
22066;SDS011;72821;49.814;19.034;2023-12-04T13:12:21;38.40;;;11.50;;
22066;SDS011;72821;49.814;19.034;2023-12-04T13:17:23;31.83;;;10.30;;
22066;SDS011;72821;49.814;19.034;2023-12-04T13:22:25;35.67;;;10.70;;
22066;SDS011;72821;49.814;19.034;2023-12-04T13:27:29;22.25;;;8.10;;
22066;SDS011;72821;49.814;19.034;2023-12-04T13:32:32;17.73;;;8.20;;
22066;SDS011;72821;49.814;19.034;2023-12-04T13:37:36;22.63;;;8.00;;
22066;SDS011;72821;49.814;19.034;2023-12-04T13:42:41;23.80;;;12.00;;
22066;SDS011;72821;49.814;19.034;2023-12-04T13:48:02;36.40;;;10.13;;
22066;SDS011;72821;49.814;19.034;2023-12-04T13:53:05;42.75;;;10.75;;
22066;SDS011;72821;49.814;19.034;2023-12-04T13:58:09;35.08;;;10.00;;
22066;SDS011;72821;49.814;19.034;2023-12-04T14:03:25;22.83;;;8.10;;
22066;SDS011;72821;49.814;19.034;2023-12-04T14:08:27;24.98;;;8.93;;
22066;SDS011;72821;49.814;19.034;2023-12-04T14:13:33;24.67;;;8.13;;
22066;SDS011;72821;49.814;19.034;2023-12-04T14:18:37;25.50;;;9.87;;
22066;SDS011;72821;49.814;19.034;2023-12-04T14:23:39;28.17;;;9.43;;
22066;SDS011;72821;49.814;19.034;2023-12-04T14:28:41;42.17;;;12.38;;
22066;SDS011;72821;49.814;19.034;2023-12-04T14:33:44;35.90;;;11.98;;
22066;SDS011;72821;49.814;19.034;2023-12-04T14:38:47;54.85;;;15.40;;
22066;SDS011;72821;49.814;19.034;2023-12-04T14:43:50;41.80;;;12.63;;
22066;SDS011;72821;49.814;19.034;2023-12-04T14:48:52;44.35;;;13.18;;
22066;SDS011;72821;49.814;19.034;2023-12-04T14:53:55;41.92;;;13.40;;
22066;SDS011;72821;49.814;19.034;2023-12-04T14:59:16;53.90;;;14.70;;
22066;SDS011;72821;49.814;19.034;2023-12-04T15:04:37;42.28;;;12.68;;
22066;SDS011;72821;49.814;19.034;2023-12-04T15:09:51;45.10;;;12.63;;
22066;SDS011;72821;49.814;19.034;2023-12-04T15:15:12;53.30;;;15.60;;
22066;SDS011;72821;49.814;19.034;2023-12-04T15:20:30;51.08;;;14.80;;
22066;SDS011;72821;49.814;19.034;2023-12-04T15:25:40;37.10;;;12.48;;
22066;SDS011;72821;49.814;19.034;2023-12-04T15:30:42;48.17;;;14.88;;
22066;SDS011;72821;49.814;19.034;2023-12-04T15:35:46;49.92;;;13.55;;
22066;SDS011;72821;49.814;19.034;2023-12-04T15:40:48;48.53;;;13.40;;
22066;SDS011;72821;49.814;19.034;2023-12-04T15:45:53;54.13;;;14.25;;
22066;SDS011;72821;49.814;19.034;2023-12-04T15:50:55;54.72;;;13.85;;
22066;SDS011;72821;49.814;19.034;2023-12-04T15:55:58;47.15;;;14.85;;
22066;SDS011;72821;49.814;19.034;2023-12-04T16:01:04;57.90;;;17.00;;
22066;SDS011;72821;49.814;19.034;2023-12-04T16:06:08;43.85;;;14.77;;
22066;SDS011;72821;49.814;19.034;2023-12-04T16:11:13;54.60;;;14.95;;
22066;SDS011;72821;49.814;19.034;2023-12-04T16:16:18;54.67;;;15.63;;
22066;SDS011;72821;49.814;19.034;2023-12-04T16:21:21;59.25;;;15.90;;
22066;SDS011;72821;49.814;19.034;2023-12-04T16:26:24;43.92;;;14.20;;
22066;SDS011;72821;49.814;19.034;2023-12-04T16:31:29;43.83;;;14.73;;
22066;SDS011;72821;49.814;19.034;2023-12-04T16:36:31;34.00;;;13.50;;
22066;SDS011;72821;49.814;19.034;2023-12-04T16:41:33;41.58;;;15.27;;
22066;SDS011;72821;49.814;19.034;2023-12-04T16:46:35;41.10;;;13.82;;
22066;SDS011;72821;49.814;19.034;2023-12-04T16:51:41;38.50;;;12.48;;
22066;SDS011;72821;49.814;19.034;2023-12-04T16:56:46;32.08;;;11.45;;
22066;SDS011;72821;49.814;19.034;2023-12-04T17:01:49;32.13;;;10.85;;
22066;SDS011;72821;49.814;19.034;2023-12-04T17:06:51;37.00;;;11.73;;
22066;SDS011;72821;49.814;19.034;2023-12-04T17:11:55;49.80;;;14.55;;
22066;SDS011;72821;49.814;19.034;2023-12-04T17:16:58;49.05;;;14.95;;
22066;SDS011;72821;49.814;19.034;2023-12-04T17:22:01;50.33;;;15.27;;
22066;SDS011;72821;49.814;19.034;2023-12-04T17:27:04;57.05;;;18.35;;
22066;SDS011;72821;49.814;19.034;2023-12-04T17:32:06;43.10;;;13.32;;
22066;SDS011;72821;49.814;19.034;2023-12-04T17:37:12;51.22;;;15.50;;
22066;SDS011;72821;49.814;19.034;2023-12-04T17:42:14;56.17;;;15.68;;
22066;SDS011;72821;49.814;19.034;2023-12-04T17:47:29;54.13;;;16.73;;
22066;SDS011;72821;49.814;19.034;2023-12-04T17:52:32;39.55;;;13.27;;
22066;SDS011;72821;49.814;19.034;2023-12-04T17:57:34;39.97;;;13.38;;
22066;SDS011;72821;49.814;19.034;2023-12-04T18:02:39;57.80;;;20.50;;
22066;SDS011;72821;49.814;19.034;2023-12-04T18:12:48;43.58;;;15.40;;
22066;SDS011;72821;49.814;19.034;2023-12-04T18:17:50;47.15;;;16.63;;
22066;SDS011;72821;49.814;19.034;2023-12-04T18:22:54;42.53;;;16.23;;
22066;SDS011;72821;49.814;19.034;2023-12-04T18:27:57;42.95;;;15.15;;
22066;SDS011;72821;49.814;19.034;2023-12-04T18:33:14;34.15;;;14.48;;
22066;SDS011;72821;49.814;19.034;2023-12-04T18:38:23;52.10;;;18.92;;
22066;SDS011;72821;49.814;19.034;2023-12-04T18:44:08;75.10;;;20.45;;
22066;SDS011;72821;49.814;19.034;2023-12-04T18:49:24;49.65;;;16.42;;
22066;SDS011;72821;49.814;19.034;2023-12-04T19:00:20;63.95;;;19.98;;
22066;SDS011;72821;49.814;19.034;2023-12-04T19:05:27;37.63;;;15.10;;
22066;SDS011;72821;49.814;19.034;2023-12-04T19:11:09;56.38;;;15.50;;
22066;SDS011;72821;49.814;19.034;2023-12-04T19:16:28;61.13;;;17.25;;
22066;SDS011;72821;49.814;19.034;2023-12-04T19:21:30;43.55;;;14.95;;
22066;SDS011;72821;49.814;19.034;2023-12-04T19:26:35;40.47;;;14.30;;
22066;SDS011;72821;49.814;19.034;2023-12-04T19:31:38;51.42;;;14.52;;
22066;SDS011;72821;49.814;19.034;2023-12-04T19:36:40;28.77;;;11.48;;
22066;SDS011;72821;49.814;19.034;2023-12-04T19:41:42;45.35;;;14.30;;
22066;SDS011;72821;49.814;19.034;2023-12-04T19:46:44;49.63;;;15.95;;
22066;SDS011;72821;49.814;19.034;2023-12-04T19:51:48;45.70;;;16.73;;
22066;SDS011;72821;49.814;19.034;2023-12-04T19:56:53;51.10;;;17.92;;
22066;SDS011;72821;49.814;19.034;2023-12-04T20:01:55;46.15;;;15.85;;
22066;SDS011;72821;49.814;19.034;2023-12-04T20:06:59;52.15;;;17.25;;
22066;SDS011;72821;49.814;19.034;2023-12-04T20:12:01;51.25;;;18.27;;
22066;SDS011;72821;49.814;19.034;2023-12-04T20:17:04;50.25;;;20.42;;
22066;SDS011;72821;49.814;19.034;2023-12-04T20:22:06;49.70;;;18.23;;
22066;SDS011;72821;49.814;19.034;2023-12-04T20:27:08;82.65;;;24.05;;
22066;SDS011;72821;49.814;19.034;2023-12-04T20:32:10;55.55;;;18.67;;
22066;SDS011;72821;49.814;19.034;2023-12-04T20:37:12;65.40;;;19.95;;
22066;SDS011;72821;49.814;19.034;2023-12-04T20:42:15;58.72;;;19.08;;
22066;SDS011;72821;49.814;19.034;2023-12-04T20:47:19;51.70;;;16.38;;
22066;SDS011;72821;49.814;19.034;2023-12-04T20:52:21;52.42;;;17.85;;
22066;SDS011;72821;49.814;19.034;2023-12-04T20:57:24;58.13;;;20.10;;
22066;SDS011;72821;49.814;19.034;2023-12-04T21:02:26;58.38;;;20.50;;
22066;SDS011;72821;49.814;19.034;2023-12-04T21:07:28;49.08;;;15.30;;
22066;SDS011;72821;49.814;19.034;2023-12-04T21:12:31;45.60;;;15.90;;
22066;SDS011;72821;49.814;19.034;2023-12-04T21:17:33;61.22;;;17.80;;
22066;SDS011;72821;49.814;19.034;2023-12-04T21:22:36;44.95;;;16.45;;
22066;SDS011;72821;49.814;19.034;2023-12-04T21:27:39;50.40;;;17.25;;
22066;SDS011;72821;49.814;19.034;2023-12-04T21:32:57;49.80;;;22.20;;
22066;SDS011;72821;49.814;19.034;2023-12-04T21:38:00;41.65;;;14.82;;
22066;SDS011;72821;49.814;19.034;2023-12-04T21:43:02;41.83;;;14.48;;
22066;SDS011;72821;49.814;19.034;2023-12-04T21:48:06;40.72;;;13.60;;
22066;SDS011;72821;49.814;19.034;2023-12-04T21:53:08;42.90;;;14.88;;
22066;SDS011;72821;49.814;19.034;2023-12-04T21:58:10;46.83;;;16.50;;
22066;SDS011;72821;49.814;19.034;2023-12-04T22:03:13;40.63;;;13.50;;
22066;SDS011;72821;49.814;19.034;2023-12-04T22:08:15;46.95;;;18.55;;
22066;SDS011;72821;49.814;19.034;2023-12-04T22:13:17;53.08;;;22.00;;
22066;SDS011;72821;49.814;19.034;2023-12-04T22:18:19;47.90;;;17.13;;
22066;SDS011;72821;49.814;19.034;2023-12-04T22:23:22;56.05;;;17.33;;
22066;SDS011;72821;49.814;19.034;2023-12-04T22:28:24;47.67;;;17.70;;
22066;SDS011;72821;49.814;19.034;2023-12-04T22:33:45;50.00;;;18.45;;
22066;SDS011;72821;49.814;19.034;2023-12-04T22:38:54;47.63;;;18.08;;
22066;SDS011;72821;49.814;19.034;2023-12-04T22:43:57;49.25;;;18.67;;
22066;SDS011;72821;49.814;19.034;2023-12-04T22:49:00;54.42;;;19.33;;
22066;SDS011;72821;49.814;19.034;2023-12-04T22:54:02;62.10;;;20.90;;
22066;SDS011;72821;49.814;19.034;2023-12-04T22:59:04;64.78;;;21.85;;
22066;SDS011;72821;49.814;19.034;2023-12-04T23:04:07;74.18;;;22.70;;
22066;SDS011;72821;49.814;19.034;2023-12-04T23:09:09;78.13;;;29.88;;
22066;SDS011;72821;49.814;19.034;2023-12-04T23:14:12;60.65;;;22.50;;
22066;SDS011;72821;49.814;19.034;2023-12-04T23:19:14;72.53;;;23.27;;
22066;SDS011;72821;49.814;19.034;2023-12-04T23:24:16;59.00;;;19.98;;
22066;SDS011;72821;49.814;19.034;2023-12-04T23:29:18;51.83;;;16.67;;
22066;SDS011;72821;49.814;19.034;2023-12-04T23:34:21;48.22;;;18.05;;
22066;SDS011;72821;49.814;19.034;2023-12-04T23:39:24;65.65;;;19.40;;
22066;SDS011;72821;49.814;19.034;2023-12-04T23:44:26;56.22;;;16.67;;
22066;SDS011;72821;49.814;19.034;2023-12-04T23:49:28;49.28;;;14.52;;
22066;SDS011;72821;49.814;19.034;2023-12-04T23:54:30;54.83;;;14.43;;
22066;SDS011;72821;49.814;19.034;2023-12-04T23:59:33;46.63;;;14.38;;
